createdAt,value
2022-11-12T00:02:25.452Z,5.41
2022-11-12T00:05:10.545Z,5.36
2022-11-12T00:07:55.438Z,5.42
2022-11-12T00:10:40.581Z,5.34
2022-11-12T00:13:25.422Z,5.33
2022-11-12T00:16:10.694Z,5.33
2022-11-12T00:18:55.621Z,5.29
2022-11-12T00:21:40.918Z,5.25
2022-11-12T00:24:26.013Z,5.27
2022-11-12T00:27:11.879Z,5.22
2022-11-12T00:29:56.957Z,5.22
2022-11-12T00:32:42.249Z,5.23
2022-11-12T00:35:27.555Z,5.22
2022-11-12T00:38:12.434Z,5.24
2022-11-12T00:41:00.985Z,5.25
2022-11-12T00:43:48.851Z,5.25
2022-11-12T00:46:33.921Z,5.21
2022-11-12T00:49:18.970Z,5.12
2022-11-12T00:52:04.376Z,5.16
2022-11-12T00:54:49.180Z,5.12
2022-11-12T00:57:34.456Z,5.14
2022-11-12T01:00:21.676Z,5.21
2022-11-12T01:03:06.652Z,5.26
2022-11-12T01:05:51.930Z,5.25
2022-11-12T01:08:37.613Z,5.22
2022-11-12T01:11:25.668Z,5.18
2022-11-12T01:14:10.954Z,5.15
2022-11-12T01:16:56.111Z,5.25
2022-11-12T01:19:41.066Z,5.25
2022-11-12T01:22:26.261Z,5.16
2022-11-12T01:25:11.669Z,5.16
2022-11-12T01:27:56.579Z,5.15
2022-11-12T01:30:42.373Z,5.04
2022-11-12T01:33:27.182Z,4.91
2022-11-12T01:36:14.185Z,4.86
2022-11-12T01:38:59.466Z,4.86
2022-11-12T01:41:44.380Z,4.94
2022-11-12T01:44:35.392Z,4.91
2022-11-12T01:47:25.038Z,4.88
2022-11-12T01:50:30.839Z,4.86
2022-11-12T01:53:16.321Z,4.83
2022-11-12T01:56:04.654Z,4.80
2022-11-12T01:58:56.405Z,4.76
2022-11-12T02:01:42.182Z,4.71
2022-11-12T02:04:27.961Z,4.70
2022-11-12T02:07:13.559Z,4.68
2022-11-12T02:10:02.013Z,4.61
2022-11-12T02:13:07.356Z,4.58
2022-11-12T02:15:52.828Z,4.56
2022-11-12T02:18:38.218Z,4.61
2022-11-12T02:21:24.968Z,4.62
2022-11-12T02:24:12.562Z,4.66
2022-11-12T02:26:58.353Z,4.71
2022-11-12T02:29:46.374Z,4.77
2022-11-12T02:32:31.810Z,4.77
2022-11-12T02:35:17.205Z,4.72
2022-11-12T02:38:03.033Z,4.67
2022-11-12T02:40:48.191Z,4.69
2022-11-12T02:43:33.632Z,4.68
2022-11-12T02:46:18.401Z,4.62
2022-11-12T02:49:04.190Z,4.63
2022-11-12T02:51:49.481Z,4.60
2022-11-12T02:54:34.571Z,4.61
2022-11-12T02:57:19.885Z,4.52
2022-11-12T03:00:07.243Z,4.43
2022-11-12T03:03:01.891Z,4.40
2022-11-12T03:05:55.342Z,4.37
2022-11-12T03:08:40.821Z,4.47
2022-11-12T03:11:25.832Z,4.36
2022-11-12T03:14:10.805Z,4.25
2022-11-12T03:16:55.662Z,4.34
2022-11-12T03:19:40.807Z,4.25
2022-11-12T03:22:25.757Z,4.22
2022-11-12T03:25:10.893Z,4.17
2022-11-12T03:28:04.366Z,4.22
2022-11-12T03:30:49.806Z,4.18
2022-11-12T03:33:35.085Z,4.10
2022-11-12T03:36:20.131Z,4.07
2022-11-12T03:39:05.589Z,4.08
2022-11-12T03:41:50.762Z,4.07
2022-11-12T03:44:35.942Z,4.05
2022-11-12T03:47:21.147Z,4.05
2022-11-12T03:50:06.660Z,4.07
2022-11-12T03:52:54.649Z,4.12
2022-11-12T03:55:39.925Z,4.10
2022-11-12T03:58:25.559Z,4.12
2022-11-12T04:01:10.853Z,4.18
2022-11-12T04:03:55.685Z,4.14
2022-11-12T04:06:59.385Z,4.04
2022-11-12T04:09:44.432Z,3.99
2022-11-12T04:12:47.941Z,3.93
2022-11-12T04:15:33.457Z,3.94
2022-11-12T04:18:36.672Z,3.94
2022-11-12T04:21:50.186Z,3.82
2022-11-12T04:24:56.468Z,3.84
2022-11-12T04:27:42.599Z,3.85
2022-11-12T04:30:27.918Z,3.89
2022-11-12T04:33:12.882Z,3.92
2022-11-12T04:35:58.098Z,3.97
2022-11-12T04:38:43.244Z,4.13
2022-11-12T04:41:46.891Z,4.18
2022-11-12T04:44:50.577Z,4.29
2022-11-12T04:47:39.340Z,4.39
2022-11-12T04:50:24.753Z,4.45
2022-11-12T04:53:09.841Z,4.34
2022-11-12T04:55:57.996Z,4.37
2022-11-12T04:58:43.288Z,4.23
2022-11-12T05:01:28.069Z,4.01
2022-11-12T05:04:13.396Z,3.94
2022-11-12T05:06:59.080Z,3.90
2022-11-12T05:09:44.497Z,3.90
2022-11-12T05:12:29.563Z,3.96
2022-11-12T05:15:15.272Z,4.02
2022-11-12T05:18:00.213Z,4.02
2022-11-12T05:20:46.939Z,3.94
2022-11-12T05:23:32.135Z,3.88
2022-11-12T05:26:17.554Z,3.83
2022-11-12T05:29:07.573Z,3.78
2022-11-12T05:31:54.031Z,3.78
2022-11-12T05:34:39.439Z,3.74
2022-11-12T05:37:24.494Z,3.67
2022-11-12T05:40:10.089Z,3.67
2022-11-12T05:42:54.976Z,3.75
2022-11-12T05:45:44.679Z,3.75
2022-11-12T05:48:30.385Z,3.73
2022-11-12T05:51:16.092Z,3.76
2022-11-12T05:54:02.483Z,3.84
2022-11-12T05:56:47.947Z,3.82
2022-11-12T05:59:32.889Z,3.73
2022-11-12T06:02:18.185Z,3.62
2022-11-12T06:05:03.918Z,3.53
2022-11-12T06:07:49.278Z,3.47
2022-11-12T06:10:34.764Z,3.42
2022-11-12T06:13:21.337Z,3.47
2022-11-12T06:16:06.625Z,3.42
2022-11-12T06:18:51.491Z,3.47
2022-11-12T06:21:36.376Z,3.44
2022-11-12T06:24:21.513Z,3.45
2022-11-12T06:27:06.753Z,3.40
2022-11-12T06:29:52.381Z,3.34
2022-11-12T06:32:37.596Z,3.29
2022-11-12T06:35:22.505Z,3.25
2022-11-12T06:38:07.756Z,3.38
2022-11-12T06:40:52.627Z,3.46
2022-11-12T06:43:38.473Z,3.46
2022-11-12T06:46:23.370Z,3.50
2022-11-12T06:49:08.521Z,3.56
2022-11-12T06:51:53.593Z,3.54
2022-11-12T06:54:38.781Z,3.47
2022-11-12T06:57:23.903Z,3.43
2022-11-12T07:00:11.804Z,3.44
2022-11-12T07:02:56.981Z,3.38
2022-11-12T07:05:42.039Z,3.27
2022-11-12T07:08:27.202Z,3.21
2022-11-12T07:11:13.733Z,3.17
2022-11-12T07:13:58.885Z,3.18
2022-11-12T07:16:44.012Z,3.27
2022-11-12T07:19:28.997Z,3.37
2022-11-12T07:22:14.330Z,3.37
2022-11-12T07:24:59.468Z,3.47
2022-11-12T07:27:44.677Z,3.49
2022-11-12T07:30:29.507Z,3.46
2022-11-12T07:33:14.411Z,3.49
2022-11-12T07:36:02.669Z,3.68
2022-11-12T07:38:50.267Z,3.63
2022-11-12T07:41:35.525Z,3.62
2022-11-12T07:44:20.733Z,3.67
2022-11-12T07:47:05.787Z,3.73
2022-11-12T07:49:50.796Z,3.84
2022-11-12T07:52:35.703Z,4.00
2022-11-12T07:55:20.783Z,4.10
2022-11-12T07:58:06.472Z,4.10
2022-11-12T08:00:52.178Z,4.08
2022-11-12T08:03:37.933Z,4.09
2022-11-12T08:06:23.684Z,4.09
2022-11-12T08:09:09.173Z,4.13
2022-11-12T08:11:54.494Z,4.18
2022-11-12T08:14:39.939Z,4.17
2022-11-12T08:17:24.739Z,4.23
2022-11-12T08:20:10.318Z,4.27
2022-11-12T08:22:59.995Z,4.30
2022-11-12T08:25:45.354Z,4.33
2022-11-12T08:28:32.300Z,4.39
2022-11-12T08:31:20.677Z,4.44
2022-11-12T08:34:12.549Z,4.52
2022-11-12T08:36:57.919Z,4.54
2022-11-12T08:39:43.118Z,4.55
2022-11-12T08:42:28.261Z,4.58
2022-11-12T08:45:13.844Z,4.65
2022-11-12T08:47:59.963Z,4.78
2022-11-12T08:50:45.371Z,4.83
2022-11-12T08:53:31.066Z,4.92
2022-11-12T08:56:16.265Z,4.93
2022-11-12T08:59:06.218Z,4.97
2022-11-12T09:01:52.569Z,5.06
2022-11-12T09:04:37.640Z,5.16
2022-11-12T09:07:48.396Z,5.24
2022-11-12T09:10:28.637Z,5.31
2022-11-12T09:13:14.272Z,5.39
2022-11-12T09:16:04.616Z,5.47
2022-11-12T09:18:49.837Z,5.61
2022-11-12T09:21:35.134Z,5.68
2022-11-12T09:24:20.141Z,5.81
2022-11-12T09:27:05.501Z,5.97
2022-11-12T09:29:50.458Z,6.11
2022-11-12T09:32:35.474Z,6.21
2022-11-12T09:35:20.439Z,6.35
2022-11-12T09:38:05.765Z,6.45
2022-11-12T09:40:53.530Z,6.53
2022-11-12T09:43:50.372Z,6.62
2022-11-12T09:46:46.358Z,6.76
2022-11-12T09:50:18.520Z,6.87
2022-11-12T09:53:17.242Z,6.98
2022-11-12T09:56:07.185Z,7.02
2022-11-12T09:58:53.591Z,7.11
2022-11-12T10:01:50.744Z,7.18
2022-11-12T10:04:59.936Z,7.29
2022-11-12T10:08:27.223Z,7.36
2022-11-12T10:12:05.605Z,7.38
2022-11-12T10:14:59.603Z,7.50
2022-11-12T10:17:55.475Z,7.61
2022-11-12T10:20:51.231Z,7.69
2022-11-12T10:23:42.716Z,7.77
2022-11-12T10:26:31.911Z,7.84
2022-11-12T10:29:30.941Z,7.87
2022-11-12T10:32:16.679Z,7.90
2022-11-12T10:35:02.626Z,7.96
2022-11-12T10:38:04.618Z,7.98
2022-11-12T10:40:49.543Z,8.00
2022-11-12T10:43:35.585Z,7.98
2022-11-12T10:46:24.344Z,8.05
2022-11-12T10:49:15.322Z,8.17
2022-11-12T10:52:00.659Z,8.22
2022-11-12T10:54:50.977Z,8.26
2022-11-12T10:57:38.870Z,8.29
2022-11-12T11:00:24.718Z,8.36
2022-11-12T11:03:21.027Z,8.45
2022-11-12T11:06:17.319Z,8.49
2022-11-12T11:09:08.899Z,8.56
2022-11-12T11:11:54.836Z,8.66
2022-11-12T11:14:40.573Z,8.77
2022-11-12T11:17:25.625Z,8.88
2022-11-12T11:20:25.856Z,9.00
2022-11-12T11:23:11.329Z,9.12
2022-11-12T11:26:03.186Z,9.24
2022-11-12T11:29:21.381Z,9.35
2022-11-12T11:32:32.087Z,9.47
2022-11-12T11:35:53.947Z,9.55
2022-11-12T11:38:42.113Z,9.65
2022-11-12T11:41:54.366Z,9.71
2022-11-12T11:45:20.427Z,9.75
2022-11-12T11:48:11.388Z,9.81
2022-11-12T11:51:06.961Z,9.87
2022-11-12T11:54:28.344Z,9.92
2022-11-12T11:57:22.845Z,9.97
2022-11-12T12:00:19.417Z,9.99
2022-11-12T12:03:31.762Z,10.01
2022-11-12T12:06:25.889Z,10.07
2022-11-12T12:09:37.182Z,10.16
2022-11-12T12:12:31.465Z,10.18
2022-11-12T12:15:32.909Z,10.13
2022-11-12T12:18:44.096Z,10.05
2022-11-12T12:21:32.194Z,9.99
2022-11-12T12:24:23.939Z,9.95
2022-11-12T12:27:16.858Z,9.95
2022-11-12T12:30:17.211Z,10.04
2022-11-12T12:33:16.235Z,10.01
2022-11-12T12:36:07.780Z,10.02
2022-11-12T12:39:03.905Z,10.06
2022-11-12T12:42:15.708Z,10.09
2022-11-12T12:45:36.117Z,10.18
2022-11-12T12:48:28.220Z,10.29
2022-11-12T12:51:13.886Z,10.40
2022-11-12T12:53:59.205Z,10.42
2022-11-12T12:56:47.179Z,10.40
2022-11-12T12:59:32.409Z,10.36
2022-11-12T13:02:23.362Z,10.43
2022-11-12T13:05:25.196Z,10.46
2022-11-12T13:08:20.310Z,10.34
2022-11-12T13:11:05.649Z,10.28
2022-11-12T13:13:50.512Z,10.34
2022-11-12T13:16:53.826Z,10.44
2022-11-12T13:19:43.894Z,10.32
2022-11-12T13:22:37.956Z,10.26
2022-11-12T13:25:29.040Z,10.18
2022-11-12T13:28:14.343Z,10.14
2022-11-12T13:31:02.128Z,10.13
2022-11-12T13:33:48.315Z,10.23
2022-11-12T13:36:33.530Z,10.32
2022-11-12T13:39:20.201Z,10.34
2022-11-12T13:42:35.689Z,10.36
2022-11-12T13:45:24.197Z,10.40
2022-11-12T13:48:15.081Z,10.37
2022-11-12T13:51:04.498Z,10.46
2022-11-12T13:53:49.546Z,10.41
2022-11-12T13:56:35.964Z,10.28
2022-11-12T13:59:24.803Z,10.21
2022-11-12T14:02:22.095Z,10.10
2022-11-12T14:05:15.037Z,10.05
2022-11-12T14:08:12.335Z,9.98
2022-11-12T14:11:34.516Z,9.86
2022-11-12T14:14:34.597Z,9.74
2022-11-12T14:17:28.696Z,9.65
2022-11-12T14:20:36.196Z,9.58
2022-11-12T14:23:25.042Z,9.51
2022-11-12T14:26:12.892Z,9.44
2022-11-12T14:28:59.274Z,9.35
2022-11-12T14:31:44.726Z,9.28
2022-11-12T14:34:32.920Z,9.18
2022-11-12T14:37:41.652Z,9.12
2022-11-12T14:40:30.458Z,9.04
2022-11-12T14:43:28.186Z,8.97
2022-11-12T14:46:27.642Z,8.88
2022-11-12T14:49:16.818Z,8.83
2022-11-12T14:52:24.741Z,8.76
2022-11-12T14:55:17.333Z,8.66
2022-11-12T14:58:04.538Z,8.59
2022-11-12T15:00:55.075Z,8.49
2022-11-12T15:03:40.261Z,8.44
2022-11-12T15:06:31.354Z,8.35
2022-11-12T15:09:18.888Z,8.26
2022-11-12T15:12:21.105Z,8.16
2022-11-12T15:15:10.590Z,8.10
2022-11-12T15:18:00.675Z,8.05
2022-11-12T15:21:02.704Z,7.96
2022-11-12T15:24:17.825Z,7.85
2022-11-12T15:27:37.073Z,7.79
2022-11-12T15:30:28.650Z,7.72
2022-11-12T15:33:13.669Z,7.67
2022-11-12T15:36:00.873Z,7.61
2022-11-12T15:38:54.199Z,7.56
2022-11-12T15:41:40.106Z,7.54
2022-11-12T15:44:25.359Z,7.49
2022-11-12T15:47:29.250Z,7.41
2022-11-12T15:50:23.003Z,7.35
2022-11-12T15:53:08.384Z,7.29
2022-11-12T15:55:53.228Z,7.19
2022-11-12T15:58:40.522Z,7.12
2022-11-12T16:01:25.988Z,7.04
2022-11-12T16:04:14.249Z,6.98
2022-11-12T16:06:59.918Z,6.89
2022-11-12T16:09:45.128Z,6.84
2022-11-12T16:12:30.046Z,6.79
2022-11-12T16:15:18.240Z,6.78
2022-11-12T16:18:03.400Z,6.77
2022-11-12T16:20:49.812Z,6.75
2022-11-12T16:23:36.778Z,6.71
2022-11-12T16:26:27.715Z,6.68
2022-11-12T16:29:13.666Z,6.61
2022-11-12T16:31:58.636Z,6.55
2022-11-12T16:34:43.588Z,6.47
2022-11-12T16:37:28.837Z,6.44
2022-11-12T16:40:23.438Z,6.44
2022-11-12T16:43:08.767Z,6.39
2022-11-12T16:45:54.210Z,6.30
2022-11-12T16:48:39.492Z,6.29
2022-11-12T16:51:24.946Z,6.23
2022-11-12T16:54:10.536Z,6.14
2022-11-12T16:56:56.534Z,6.07
2022-11-12T16:59:41.631Z,6.04
2022-11-12T17:02:26.495Z,6.04
2022-11-12T17:05:22.952Z,5.96
2022-11-12T17:08:09.757Z,5.87
2022-11-12T17:10:55.910Z,5.86
2022-11-12T17:13:41.597Z,5.83
2022-11-12T17:16:26.713Z,5.82
2022-11-12T17:19:11.924Z,5.81
2022-11-12T17:21:57.123Z,5.80
2022-11-12T17:24:42.319Z,5.77
2022-11-12T17:27:28.414Z,5.71
2022-11-12T17:30:13.933Z,5.71
2022-11-12T17:32:59.811Z,5.75
2022-11-12T17:35:45.121Z,5.71
2022-11-12T17:38:30.473Z,5.69
2022-11-12T17:41:15.562Z,5.63
2022-11-12T17:44:01.312Z,5.55
2022-11-12T17:46:47.189Z,5.55
2022-11-12T17:49:32.080Z,5.61
2022-11-12T17:52:17.253Z,5.58
2022-11-12T17:55:02.718Z,5.50
2022-11-12T17:57:48.805Z,5.42
2022-11-12T18:00:35.062Z,5.31
2022-11-12T18:03:20.602Z,5.31
2022-11-12T18:06:12.284Z,5.25
2022-11-12T18:09:00.413Z,5.19
2022-11-12T18:11:48.607Z,5.29
2022-11-12T18:14:33.668Z,5.22
2022-11-12T18:17:19.174Z,5.15
2022-11-12T18:20:04.946Z,5.05
2022-11-12T18:22:50.202Z,5.00
2022-11-12T18:25:38.025Z,5.00
2022-11-12T18:28:23.261Z,4.97
2022-11-12T18:31:09.113Z,4.95
2022-11-12T18:33:55.325Z,4.99
2022-11-12T18:36:40.891Z,4.99
2022-11-12T18:39:26.439Z,5.04
2022-11-12T18:42:11.760Z,4.97
2022-11-12T18:44:56.872Z,5.00
2022-11-12T18:47:42.011Z,5.05
2022-11-12T18:50:27.290Z,5.00
2022-11-12T18:53:12.259Z,4.94
2022-11-12T18:56:06.830Z,4.97
2022-11-12T18:58:53.101Z,4.95
2022-11-12T19:01:38.386Z,4.92
2022-11-12T19:04:23.496Z,4.82
2022-11-12T19:07:09.071Z,4.79
2022-11-12T19:09:54.600Z,4.80
2022-11-12T19:12:39.569Z,4.77
2022-11-12T19:15:26.940Z,4.79
2022-11-12T19:18:12.139Z,4.68
2022-11-12T19:21:06.694Z,4.56
2022-11-12T19:23:56.021Z,4.56
2022-11-12T19:26:41.514Z,4.50
2022-11-12T19:29:26.972Z,4.40
2022-11-12T19:32:13.579Z,4.35
2022-11-12T19:34:58.655Z,4.41
2022-11-12T19:37:43.995Z,4.37
2022-11-12T19:40:28.792Z,4.29
2022-11-12T19:43:14.030Z,4.28
2022-11-12T19:45:59.067Z,4.25
2022-11-12T19:48:44.687Z,4.26
2022-11-12T19:51:30.795Z,4.22
2022-11-12T19:54:16.067Z,4.24
2022-11-12T19:57:00.826Z,4.30
2022-11-12T19:59:46.518Z,4.22
2022-11-12T20:02:31.814Z,4.15
2022-11-12T20:05:17.106Z,4.08
2022-11-12T20:08:02.136Z,3.98
2022-11-12T20:10:47.573Z,3.90
2022-11-12T20:13:32.718Z,3.95
2022-11-12T20:16:23.791Z,4.04
2022-11-12T20:19:10.767Z,3.93
2022-11-12T20:21:55.913Z,3.94
2022-11-12T20:24:41.244Z,3.95
2022-11-12T20:27:26.498Z,3.96
2022-11-12T20:30:12.088Z,4.13
2022-11-12T20:32:56.886Z,4.02
2022-11-12T20:35:42.069Z,3.95
2022-11-12T20:38:28.569Z,3.99
2022-11-12T20:41:22.960Z,3.98
2022-11-12T20:44:08.142Z,3.95
2022-11-12T20:46:53.449Z,3.93
2022-11-12T20:49:38.378Z,3.92
2022-11-12T20:52:23.553Z,3.98
2022-11-12T20:55:09.411Z,4.01
2022-11-12T20:57:54.417Z,4.07
2022-11-12T21:00:39.748Z,4.10
2022-11-12T21:03:25.055Z,4.08
2022-11-12T21:06:13.010Z,4.07
2022-11-12T21:08:59.724Z,4.04
2022-11-12T21:11:44.860Z,3.96
2022-11-12T21:14:30.498Z,3.87
2022-11-12T21:17:15.342Z,3.85
2022-11-12T21:20:00.321Z,3.89
2022-11-12T21:22:47.624Z,3.90
2022-11-12T21:25:36.569Z,3.88
2022-11-12T21:28:21.683Z,3.86
2022-11-12T21:31:13.009Z,3.90
2022-11-12T21:34:00.916Z,3.91
2022-11-12T21:36:45.914Z,3.99
2022-11-12T21:39:31.221Z,3.96
2022-11-12T21:42:16.414Z,3.97
2022-11-12T21:45:02.159Z,4.00
2022-11-12T21:47:47.308Z,4.05
2022-11-12T21:50:32.412Z,4.05
2022-11-12T21:53:17.776Z,4.05
2022-11-12T21:56:17.149Z,4.01
2022-11-12T21:59:04.085Z,4.02
2022-11-12T22:01:49.525Z,4.01
2022-11-12T22:04:34.493Z,4.04
2022-11-12T22:07:19.864Z,3.99
2022-11-12T22:10:05.868Z,3.99
2022-11-12T22:13:19.718Z,3.96
2022-11-12T22:15:57.149Z,3.93
2022-11-12T22:18:43.742Z,3.96
2022-11-12T22:21:35.390Z,3.98
2022-11-12T22:24:22.065Z,3.93
2022-11-12T22:27:07.174Z,3.94
2022-11-12T22:29:52.215Z,3.92
2022-11-12T22:32:37.176Z,3.96
2022-11-12T22:35:22.455Z,3.93
2022-11-12T22:38:07.545Z,3.99
2022-11-12T22:40:52.873Z,4.03
2022-11-12T22:43:38.494Z,4.05
2022-11-12T22:46:28.782Z,4.03
2022-11-12T22:49:14.002Z,4.08
2022-11-12T22:51:59.153Z,4.10
2022-11-12T22:54:44.231Z,4.09
2022-11-12T22:57:29.372Z,4.12
2022-11-12T23:00:15.162Z,4.12
2022-11-12T23:03:00.424Z,4.08
2022-11-12T23:05:45.273Z,4.10
2022-11-12T23:08:31.525Z,4.06
2022-11-12T23:11:19.757Z,4.07
2022-11-12T23:14:04.839Z,4.06
2022-11-12T23:16:52.557Z,4.06
2022-11-12T23:19:37.549Z,4.04
2022-11-12T23:22:22.740Z,4.02
2022-11-12T23:25:08.296Z,3.99
2022-11-12T23:27:53.276Z,3.97
2022-11-12T23:30:38.399Z,4.04
2022-11-12T23:33:23.608Z,4.03
2022-11-12T23:36:10.743Z,4.05
2022-11-12T23:38:56.992Z,4.07
2022-11-12T23:41:42.133Z,4.09
2022-11-12T23:44:27.016Z,4.08
2022-11-12T23:47:12.205Z,4.07
2022-11-12T23:49:57.181Z,4.04
2022-11-12T23:52:42.468Z,4.01
2022-11-12T23:55:29.325Z,3.99
2022-11-12T23:58:15.427Z,3.94
